Bergara, Spain
Current Conditions -  °F | °C
As of 4:30 AM on Sunday 25 Jan 2015 (Local Time) from LEVT Reporting Station
Broken Clouds Broken Clouds  
Wind Chill: 37°   Ceiling: 2500
Heat Index: 37°   Visibility: 6mi
Dew Point: 36°   Wind: 1mph
Humidity: 93%   Direction: NA
Pressure: 30.45"   Gusts: NA
Location:  43.12°N, 2.42°W
Report Text: LEVT 250330Z VRB01KT 9999 FEW017 BKN025 03/02 Q1031
Loading
Personal Weather Stations






























Interactive Weather Map New forecast layout! Learn more

10-Day Weather Forecast

Advertisements
Track Severe Weather on mobile